Time;durP1;ratioP1;P1;durP2;ratioP2;P2;SDS_P1;SDS_P2;PMS_P1;PMS_P2;Temp;Humidity;BMP_temperature;BMP_pressure;BME280_temperature;BME280_humidity;BME280_pressure;Samples;Min_cycle;Max_cycle;Signal;HPM_P1;HPM_P2
2022/02/10 00:05:59;;;;;;;3.38;3.17;;;16.90;64.20;;;;;;5066906;28;20068;-27
2022/02/10 00:18:52;;;;;;;3.28;3.08;;;16.80;64.20;;;;;;5065482;28;20101;-27
2022/02/10 00:21:48;;;;;;;2.70;2.60;;;16.80;64.00;;;;;;5066571;28;20040;-27
2022/02/10 00:35:29;;;;;;;2.65;2.45;;;16.80;64.20;;;;;;5053842;28;20067;-28
2022/02/10 00:37:58;;;;;;;2.60;2.50;;;16.80;64.20;;;;;;5063895;28;20094;-27
2022/02/10 00:40:28;;;;;;;2.67;2.47;;;16.80;64.10;;;;;;5065729;28;20080;-27
2022/02/10 00:42:54;;;;;;;2.60;2.50;;;16.80;63.90;;;;;;5070016;28;20041;-26
2022/02/10 00:45:21;;;;;;;3.00;2.80;;;16.90;63.80;;;;;;5057747;28;20049;-27
2022/02/10 00:47:56;;;;;;;2.58;2.47;;;16.80;63.90;;;;;;5055961;28;20417;-26
2022/02/10 00:50:24;;;;;;;2.70;2.50;;;16.80;64.00;;;;;;5064208;28;20049;-27
2022/02/10 00:52:56;;;;;;;2.95;2.85;;;16.80;64.00;;;;;;5055828;28;20049;-28
2022/02/10 00:55:26;;;;;;;2.95;2.65;;;16.80;64.00;;;;;;5071919;28;20564;-28
2022/02/10 00:57:52;;;;;;;2.95;2.75;;;16.80;63.90;;;;;;5057091;28;20113;-25
2022/02/10 01:10:52;;;;;;;2.38;2.28;;;16.80;63.90;;;;;;5056555;28;20053;-27
2022/02/10 01:29:44;;;;;;;2.88;2.67;;;16.80;63.90;;;;;;5059105;28;20047;-28
2022/02/10 01:32:10;;;;;;;2.95;2.75;;;16.80;63.80;;;;;;5071989;28;20091;-27
2022/02/10 01:34:49;;;;;;;2.40;2.30;;;16.70;64.00;;;;;;5059488;28;20044;-27
2022/02/10 01:37:15;;;;;;;2.45;2.35;;;16.70;64.80;;;;;;5072808;28;20411;-27
2022/02/10 01:39:46;;;;;;;2.55;2.35;;;16.70;64.00;;;;;;5074635;28;20127;-27
2022/02/10 02:03:56;;;;;;;2.20;2.10;;;16.70;64.00;;;;;;5072248;28;20051;-27
2022/02/10 02:06:29;;;;;;;2.13;2.03;;;16.70;64.20;;;;;;5066317;28;20052;-27
2022/02/10 02:08:56;;;;;;;2.38;2.28;;;16.70;64.10;;;;;;5070624;28;20041;-27
2022/02/10 02:11:28;;;;;;;2.05;1.95;;;16.70;64.00;;;;;;5082078;28;20051;-28
2022/02/10 02:13:54;;;;;;;1.92;1.83;;;16.60;64.20;;;;;;5067408;28;20044;-28
2022/02/10 02:16:20;;;;;;;1.92;1.83;;;16.70;64.00;;;;;;5076149;28;20064;-27
2022/02/10 02:18:45;;;;;;;1.95;1.85;;;16.70;64.00;;;;;;5060287;28;20041;-28
2022/02/10 02:21:11;;;;;;;2.50;2.40;;;16.60;64.00;;;;;;5068250;28;20496;-27
2022/02/10 02:23:37;;;;;;;2.00;1.90;;;16.70;64.10;;;;;;5047130;28;20060;-29
2022/02/10 02:26:11;;;;;;;1.80;1.70;;;16.70;64.70;;;;;;5065574;28;20713;-25
2022/02/10 02:28:40;;;;;;;1.95;1.73;;;16.70;64.00;;;;;;5060623;28;20424;-28
2022/02/10 02:31:10;;;;;;;2.58;2.38;;;16.70;64.00;;;;;;5055865;28;20048;-27
2022/02/10 03:06:28;;;;;;;1.77;1.67;;;16.60;64.30;;;;;;5060726;28;19923;-27
2022/02/10 03:08:58;;;;;;;1.77;1.67;;;16.50;64.20;;;;;;5059064;28;20048;-27
2022/02/10 03:11:24;;;;;;;2.00;1.90;;;16.50;64.40;;;;;;5056129;28;20552;-27
2022/02/10 03:14:05;;;;;;;2.20;2.00;;;16.50;65.00;;;;;;5056563;28;20398;-27
2022/02/10 04:08:03;;;;;;;1.85;1.75;;;16.50;64.60;;;;;;5066310;28;20060;-26
2022/02/10 04:10:49;;;;;;;1.70;1.60;;;16.50;64.60;;;;;;5074366;28;20036;-26
2022/02/10 04:13:34;;;;;;;1.65;1.55;;;16.40;64.50;;;;;;5064508;28;20048;-27
2022/02/10 04:16:20;;;;;;;1.10;1.10;;;16.40;64.50;;;;;;5067358;28;20044;-28
2022/02/10 04:21:39;;;;;;;1.13;1.13;;;16.50;64.50;;;;;;5067215;28;20515;-27
2022/02/10 04:38:29;;;;;;;1.50;1.50;;;16.50;64.50;;;;;;5072032;28;20129;-27
2022/02/10 04:43:41;;;;;;;1.50;1.48;;;16.40;64.50;;;;;;5072252;28;20675;-27
2022/02/10 04:59:56;;;;;;;1.63;1.52;;;16.40;64.50;;;;;;5071666;28;20511;-27
2022/02/10 05:03:32;;;;;;;1.60;1.50;;;16.40;64.30;;;;;;5062662;28;20037;-28
2022/02/10 05:19:25;;;;;;;1.48;1.40;;;16.40;64.30;;;;;;5072741;28;20111;-27
2022/02/10 05:35:28;;;;;;;1.15;1.15;;;16.30;64.40;;;;;;5075164;28;20033;-27
2022/02/10 05:38:17;;;;;;;1.30;1.30;;;16.40;64.40;;;;;;5073903;28;20067;-27
2022/02/10 06:58:17;;;;;;;0.82;0.82;;;16.30;64.10;;;;;;5062479;28;20053;-26
2022/02/10 07:03:45;;;;;;;0.90;0.90;;;16.30;64.30;;;;;;5062221;28;20051;-27
2022/02/10 08:27:34;;;;;;;1.00;0.82;;;16.30;64.60;;;;;;5067671;28;20563;-26
2022/02/10 08:57:15;;;;;;;0.80;0.80;;;16.30;64.30;;;;;;5078388;28;20047;-27
2022/02/10 09:16:17;;;;;;;0.80;0.80;;;16.30;64.00;;;;;;5072527;28;19959;-26
2022/02/10 09:18:30;;;;;;;1.02;0.85;;;16.40;64.00;;;;;;5062313;28;20037;-26
2022/02/10 09:54:30;;;;;;;1.70;0.90;;;16.40;66.00;;;;;;5057271;28;20056;-26
2022/02/10 09:56:24;;;;;;;2.90;0.90;;;16.40;66.00;;;;;;5077540;28;20278;-26
2022/02/10 10:04:03;;;;;;;0.88;0.80;;;16.40;65.80;;;;;;5072228;28;20049;-28
2022/02/10 10:23:51;;;;;;;0.60;0.60;;;16.50;65.50;;;;;;5057767;28;20191;-26
2022/02/10 10:51:52;;;;;;;0.80;0.80;;;16.70;65.40;;;;;;5058672;28;20483;-26
2022/02/10 10:56:46;;;;;;;0.60;0.60;;;16.70;65.50;;;;;;5056343;28;20113;-27
2022/02/10 11:22:09;;;;;;;0.50;0.50;;;16.90;64.70;;;;;;5077777;28;20313;-26
2022/02/10 11:37:33;;;;;;;1.30;1.20;;;17.10;64.30;;;;;;5054631;28;20242;-26
2022/02/10 11:40:09;;;;;;;3.90;1.25;;;17.20;64.40;;;;;;5068736;28;20036;-26
2022/02/10 11:42:45;;;;;;;1.42;1.33;;;17.20;64.40;;;;;;5051722;28;20351;-26
2022/02/10 14:12:59;;;;;;;1.98;0.98;;;17.30;64.00;;;;;;5061210;28;20202;-26
2022/02/10 14:21:13;;;;;;;1.83;1.20;;;17.30;64.10;;;;;;5072831;28;20098;-27
2022/02/10 14:26:11;;;;;;;1.20;1.00;;;17.30;64.10;;;;;;5062718;28;20766;-27
2022/02/10 14:28:38;;;;;;;2.97;0.90;;;17.30;64.10;;;;;;5058693;28;20583;-27
2022/02/10 14:31:04;;;;;;;1.77;0.90;;;17.30;64.00;;;;;;5060446;28;20529;-26
2022/02/10 14:33:33;;;;;;;1.45;1.00;;;17.30;64.30;;;;;;5072033;28;20163;-26
2022/02/10 14:36:04;;;;;;;1.65;1.15;;;17.30;64.30;;;;;;5069775;28;20068;-27
2022/02/10 14:38:44;;;;;;;1.38;0.95;;;17.30;64.40;;;;;;5061664;28;20369;-27
2022/02/10 15:11:45;;;;;;;1.02;0.90;;;17.20;64.50;;;;;;5058051;28;20154;-27
2022/02/10 16:10:53;;;;;;;1.90;0.52;;;17.10;64.40;;;;;;5070057;28;20047;-26
2022/02/10 16:18:14;;;;;;;1.70;0.80;;;17.10;64.50;;;;;;5062575;28;20136;-27
2022/02/10 16:20:46;;;;;;;1.70;0.50;;;17.00;64.50;;;;;;5057389;28;20233;-27
2022/02/10 16:23:16;;;;;;;1.33;0.60;;;17.00;64.40;;;;;;5057145;28;20051;-27
2022/02/10 16:25:48;;;;;;;0.85;0.60;;;17.00;64.40;;;;;;5064395;28;20568;-27
2022/02/10 16:28:26;;;;;;;1.77;0.60;;;17.00;64.60;;;;;;5069260;28;20056;-27
2022/02/10 16:30:52;;;;;;;1.90;0.55;;;17.00;64.40;;;;;;5062895;28;20051;-27
2022/02/10 16:33:19;;;;;;;0.43;0.40;;;17.10;64.50;;;;;;5070344;28;20190;-26
2022/02/10 16:35:44;;;;;;;0.77;0.52;;;17.00;64.30;;;;;;5058394;28;20156;-27
2022/02/10 16:38:10;;;;;;;2.80;0.80;;;17.10;64.20;;;;;;5058668;28;20092;-27
2022/02/10 16:40:37;;;;;;;1.45;0.60;;;17.00;64.30;;;;;;5080020;28;20109;-27
2022/02/10 16:43:02;;;;;;;0.75;0.60;;;17.00;64.40;;;;;;5058248;28;20509;-27
2022/02/10 16:45:28;;;;;;;0.85;0.50;;;17.00;64.40;;;;;;5055865;28;20477;-27
2022/02/10 16:47:54;;;;;;;1.52;0.50;;;17.00;64.50;;;;;;5064202;28;20090;-26
2022/02/10 16:50:20;;;;;;;0.60;0.47;;;17.00;64.30;;;;;;5058717;28;20612;-27
2022/02/10 16:52:51;;;;;;;2.20;0.52;;;17.00;64.30;;;;;;5060418;28;20221;-27
2022/02/10 17:14:57;;;;;;;;;;;16.90;64.40;;;;;;5079319;28;20051;-27
2022/02/10 17:27:26;;;;;;;;;;;17.00;64.20;;;;;;5043772;28;20129;-27
2022/02/10 17:30:34;;;;;;;1.80;0.60;;;16.90;64.30;;;;;;5052182;28;19924;-26
2022/02/10 17:46:39;;;;;;;1.60;0.38;;;16.90;64.20;;;;;;5058424;28;20049;-27
2022/02/10 17:51:59;;;;;;;0.93;0.73;;;16.90;64.20;;;;;;5070097;28;20506;-27
2022/02/10 17:54:26;;;;;;;0.75;0.65;;;16.90;64.30;;;;;;5068209;28;20532;-28
2022/02/10 17:56:51;;;;;;;0.70;0.70;;;16.90;64.20;;;;;;5069312;28;20045;-27
2022/02/10 17:59:18;;;;;;;3.03;0.80;;;16.90;64.30;;;;;;5064657;28;20105;-26
2022/02/10 18:01:45;;;;;;;0.95;0.65;;;16.90;64.20;;;;;;5085408;28;20051;-27
2022/02/10 18:04:11;;;;;;;2.63;0.65;;;16.90;64.20;;;;;;5064161;28;20036;-27
2022/02/10 18:06:41;;;;;;;1.13;0.80;;;16.90;64.10;;;;;;5060336;28;20805;-27
2022/02/10 18:14:37;;;;;;;2.35;1.00;;;16.90;64.20;;;;;;5059198;28;20539;-27
2022/02/10 18:19:37;;;;;;;3.75;1.10;;;16.80;64.40;;;;;;5061815;28;20103;-26
2022/02/10 18:22:27;;;;;;;1.15;1.00;;;16.90;64.40;;;;;;5058447;28;20048;-26
2022/02/10 18:30:23;;;;;;;4.15;1.48;;;16.80;64.40;;;;;;5054493;28;20090;-28
2022/02/10 19:07:51;;;;;;;4.00;3.53;;;16.90;64.40;;;;;;5055997;28;20107;-27
2022/02/10 19:10:20;;;;;;;5.70;3.72;;;16.90;64.30;;;;;;5063539;28;20049;-28
2022/02/10 19:12:48;;;;;;;7.38;4.47;;;16.90;64.30;;;;;;5056464;28;20055;-27
2022/02/10 19:15:19;;;;;;;7.93;5.18;;;16.90;64.30;;;;;;5065036;28;20063;-27
2022/02/10 19:17:45;;;;;;;7.15;4.55;;;16.90;64.30;;;;;;5058405;28;20088;-27
2022/02/10 19:20:11;;;;;;;8.43;5.45;;;16.90;64.40;;;;;;5061718;28;20080;-27
2022/02/10 19:22:41;;;;;;;8.57;5.45;;;16.90;64.30;;;;;;5063407;28;20048;-27
2022/02/10 19:25:08;;;;;;;6.95;5.47;;;16.90;64.60;;;;;;5052683;28;20067;-27
2022/02/10 19:27:35;;;;;;;8.93;5.50;;;16.90;64.60;;;;;;5055268;28;20056;-27
2022/02/10 19:30:01;;;;;;;9.07;6.38;;;16.90;64.60;;;;;;5068301;28;20586;-27
2022/02/10 19:32:30;;;;;;;12.15;7.07;;;16.90;64.60;;;;;;5060345;28;20081;-26
2022/02/10 19:34:57;;;;;;;8.55;6.50;;;16.90;64.60;;;;;;5060951;28;20758;-27
2022/02/10 19:37:24;;;;;;;8.90;6.43;;;17.00;64.80;;;;;;5063907;28;20053;-26
2022/02/10 19:39:56;;;;;;;8.45;6.57;;;17.00;64.60;;;;;;5054316;28;20462;-27
2022/02/10 19:42:22;;;;;;;11.02;6.45;;;17.00;64.40;;;;;;5068230;28;20536;-26
2022/02/10 19:44:48;;;;;;;11.48;7.10;;;17.00;64.40;;;;;;5081507;28;20405;-26
2022/02/10 19:47:13;;;;;;;12.10;5.53;;;17.00;64.40;;;;;;5064254;28;20071;-26
2022/02/10 19:49:41;;;;;;;9.18;5.70;;;17.00;64.30;;;;;;5059707;28;20052;-27
2022/02/10 19:52:07;;;;;;;6.55;5.85;;;17.00;64.40;;;;;;5054699;28;20048;-27
2022/02/10 19:54:38;;;;;;;9.52;5.57;;;17.00;64.40;;;;;;5054063;28;20047;-27
2022/02/10 19:57:04;;;;;;;7.75;5.38;;;17.00;64.40;;;;;;5055486;28;20540;-27
2022/02/10 19:59:31;;;;;;;6.82;5.25;;;17.00;64.40;;;;;;5062545;28;20076;-26
2022/02/10 20:01:57;;;;;;;14.32;6.72;;;17.10;64.40;;;;;;5062221;28;20520;-26
2022/02/10 20:04:24;;;;;;;7.20;4.90;;;17.10;64.20;;;;;;5061229;28;20397;-27
2022/02/10 20:06:50;;;;;;;6.25;4.97;;;17.20;64.00;;;;;;5065753;28;20595;-27
2022/02/10 20:09:17;;;;;;;8.48;5.40;;;17.10;63.90;;;;;;5070270;28;20567;-27
2022/02/10 20:11:43;;;;;;;6.43;4.97;;;17.10;63.90;;;;;;5058541;28;20043;-27
2022/02/10 20:14:08;;;;;;;7.65;4.57;;;17.20;64.00;;;;;;5065808;28;20048;-27
2022/02/10 20:16:34;;;;;;;5.60;4.78;;;17.20;64.00;;;;;;5066120;28;20046;-27
2022/02/10 20:19:02;;;;;;;8.52;5.72;;;17.20;64.20;;;;;;5067028;28;20048;-27
2022/02/10 20:21:29;;;;;;;6.50;4.47;;;17.20;65.60;;;;;;5059311;28;20106;-27
2022/02/10 20:23:54;;;;;;;5.80;4.60;;;17.10;65.20;;;;;;5062791;28;20452;-27
2022/02/10 20:26:20;;;;;;;7.45;4.55;;;17.20;65.40;;;;;;5057581;28;20059;-27
2022/02/10 20:28:46;;;;;;;7.60;4.68;;;17.20;65.30;;;;;;5062974;28;20064;-27
2022/02/10 20:31:12;;;;;;;6.90;4.53;;;17.20;65.40;;;;;;5068785;28;20117;-27
2022/02/10 20:33:38;;;;;;;5.40;4.07;;;17.20;65.30;;;;;;5070765;28;20040;-27
2022/02/10 20:36:05;;;;;;;6.90;5.13;;;17.20;65.40;;;;;;5057995;28;20057;-27
2022/02/10 20:38:32;;;;;;;5.25;4.32;;;17.20;65.30;;;;;;5055575;28;20044;-27
2022/02/10 20:41:01;;;;;;;4.90;4.40;;;17.20;65.30;;;;;;5069209;28;20055;-27
2022/02/10 20:43:27;;;;;;;5.63;3.83;;;17.20;65.30;;;;;;5056095;28;20049;-27
2022/02/10 20:46:00;;;;;;;4.50;3.95;;;17.20;65.10;;;;;;5055942;28;20052;-27
2022/02/10 20:48:28;;;;;;;4.45;4.05;;;17.10;65.20;;;;;;5061030;28;20041;-27
2022/02/10 20:50:56;;;;;;;4.50;4.10;;;17.20;65.10;;;;;;5056626;28;20520;-26
2022/02/10 20:53:26;;;;;;;4.25;3.70;;;17.20;65.10;;;;;;5066880;28;20045;-27
2022/02/10 20:55:55;;;;;;;5.55;3.97;;;17.20;65.00;;;;;;5068945;28;20048;-27
2022/02/10 20:58:24;;;;;;;4.47;4.00;;;17.20;64.90;;;;;;5067833;28;20063;-27
2022/02/10 21:00:51;;;;;;;3.72;3.38;;;17.20;64.80;;;;;;5074019;28;20056;-27
2022/02/10 21:03:19;;;;;;;4.43;3.75;;;17.20;64.80;;;;;;5073981;28;20047;-27
2022/02/10 21:05:46;;;;;;;4.95;3.55;;;17.20;64.80;;;;;;5061113;28;20056;-26
2022/02/10 21:08:19;;;;;;;7.60;3.85;;;17.20;64.80;;;;;;5069481;28;20044;-27
2022/02/10 21:10:45;;;;;;;5.53;3.45;;;17.20;64.90;;;;;;5072468;28;20053;-27
2022/02/10 21:13:13;;;;;;;4.32;3.92;;;17.20;64.80;;;;;;5072545;28;20090;-27
2022/02/10 21:15:44;;;;;;;6.20;3.20;;;17.20;64.80;;;;;;5074756;28;20132;-27
2022/02/10 21:18:11;;;;;;;3.97;3.55;;;17.30;64.80;;;;;;5064687;28;20559;-26
2022/02/10 21:20:38;;;;;;;7.22;3.70;;;17.20;64.70;;;;;;5070059;28;20079;-27
2022/02/10 21:23:18;;;;;;;5.03;3.45;;;17.20;64.80;;;;;;5067796;28;20523;-27
2022/02/10 21:25:44;;;;;;;3.70;3.40;;;17.30;64.80;;;;;;5070145;28;20053;-27
2022/02/10 21:28:31;;;;;;;5.30;3.67;;;17.30;64.80;;;;;;5067261;28;20041;-27
2022/02/10 21:31:00;;;;;;;5.15;3.40;;;17.20;64.90;;;;;;5065286;28;20517;-27
2022/02/10 21:33:41;;;;;;;4.93;3.30;;;17.20;65.10;;;;;;5071162;28;20051;-27
2022/02/10 21:39:29;;;;;;;6.78;3.33;;;17.20;65.00;;;;;;5065573;28;20045;-27
2022/02/10 22:21:04;;;;;;;2.90;2.70;;;17.30;65.00;;;;;;5066218;28;20384;-27
2022/02/10 22:23:31;;;;;;;2.72;2.53;;;17.30;65.20;;;;;;5061974;28;20505;-27
2022/02/10 22:26:03;;;;;;;3.83;2.85;;;17.30;65.20;;;;;;5053868;28;20091;-28
2022/02/10 22:28:43;;;;;;;3.60;2.60;;;17.30;65.20;;;;;;5070107;28;20044;-27
2022/02/10 22:36:14;;;;;;;10.75;2.92;;;17.30;65.30;;;;;;5059813;28;20055;-27
2022/02/10 22:38:40;;;;;;;2.80;2.60;;;17.40;65.70;;;;;;5061787;28;20055;-27
2022/02/10 22:41:10;;;;;;;6.75;2.72;;;17.30;65.20;;;;;;5059286;28;20053;-27
2022/02/10 22:43:40;;;;;;;3.55;2.67;;;17.30;65.30;;;;;;5060066;28;20040;-27
2022/02/10 22:46:06;;;;;;;3.15;2.60;;;17.30;65.00;;;;;;5068384;28;20036;-27
2022/02/10 22:48:31;;;;;;;3.45;2.97;;;17.30;65.30;;;;;;5061525;28;20067;-27
2022/02/10 22:50:57;;;;;;;2.70;2.42;;;17.40;65.40;;;;;;5063128;28;20134;-27
2022/02/10 22:53:22;;;;;;;2.90;2.70;;;17.40;65.20;;;;;;5055634;28;20045;-27
2022/02/10 22:55:48;;;;;;;2.75;2.55;;;17.30;65.10;;;;;;5066004;28;20056;-27
2022/02/10 22:58:14;;;;;;;3.03;2.72;;;17.30;65.20;;;;;;5056556;28;20119;-27
2022/02/10 23:00:49;;;;;;;3.17;2.63;;;17.30;65.30;;;;;;5054753;28;20049;-27
2022/02/10 23:03:19;;;;;;;2.60;2.40;;;17.30;65.10;;;;;;5060430;28;20036;-27
2022/02/10 23:05:44;;;;;;;2.58;2.38;;;17.30;65.30;;;;;;5075376;28;20049;-28
2022/02/10 23:08:10;;;;;;;2.92;2.42;;;17.30;65.10;;;;;;5074726;28;20044;-27
2022/02/10 23:13:05;;;;;;;2.55;2.20;;;17.20;65.30;;;;;;5061822;28;20064;-27
2022/02/10 23:15:37;;;;;;;2.40;2.20;;;17.30;65.30;;;;;;5062800;28;20041;-27
2022/02/10 23:18:08;;;;;;;2.63;2.42;;;17.20;65.10;;;;;;5065911;28;20037;-27
2022/02/10 23:20:34;;;;;;;4.60;2.38;;;17.20;65.20;;;;;;5060103;28;20137;-27
2022/02/10 23:22:59;;;;;;;2.50;2.33;;;17.20;65.20;;;;;;5074591;28;20135;-27
2022/02/10 23:25:27;;;;;;;2.60;2.40;;;17.20;65.30;;;;;;5073243;28;20075;-27
2022/02/10 23:27:53;;;;;;;2.20;2.10;;;17.20;65.30;;;;;;5066644;28;20450;-27
2022/02/10 23:30:22;;;;;;;7.72;2.42;;;17.20;65.20;;;;;;5077450;28;20503;-27
2022/02/10 23:32:48;;;;;;;3.10;2.47;;;17.10;65.20;;;;;;5095957;28;20048;-27
2022/02/10 23:35:43;;;;;;;2.47;2.28;;;17.20;65.40;;;;;;5060101;28;20094;-27
2022/02/10 23:37:59;;;;;;;2.47;2.28;;;17.20;65.30;;;;;;5055341;28;20037;-27
2022/02/10 23:40:29;;;;;;;2.40;2.20;;;17.10;65.20;;;;;;5067445;28;20048;-27
2022/02/10 23:42:56;;;;;;;2.38;2.17;;;17.10;65.20;;;;;;5065672;28;20048;-28
2022/02/10 23:45:25;;;;;;;2.40;2.20;;;17.20;65.20;;;;;;5059597;28;20044;-27
2022/02/10 23:47:52;;;;;;;2.85;2.40;;;17.20;65.10;;;;;;5054998;28;20045;-28
2022/02/10 23:50:24;;;;;;;2.80;2.17;;;17.20;65.10;;;;;;5070443;28;20041;-27
2022/02/10 23:52:53;;;;;;;2.40;2.20;;;17.10;65.20;;;;;;5074339;28;20054;-26
2022/02/10 23:55:26;;;;;;;2.08;1.98;;;17.10;65.20;;;;;;5073676;28;20059;-26
2022/02/10 23:58:05;;;;;;;2.85;2.47;;;17.10;65.20;;;;;;5071228;28;20041;-27
